Weather history for 0415

Weather History For Prescott AZ

This page updates 5 minutes after midnight. GMT -7

Station: KPRC0 Rows: 26

Return to today's weather
Year Date Temp (°F) Tmin (°F) Tmax (°F) RH% Prcp Snow Wind Gust Pres Sun Cloud
2000 2000-04-15 51.6 39.0 63.0 39 13.8 29.82 0
2001 2001-04-15 54.1 36.0 71.1 30 10.3 30.00 0
2002 2002-04-15 60.8 33 24.7 29.59 2
2003 2003-04-15 41.7 64 24.6 29.88 5
2004 2004-04-15 58.3 42.8 69.8 21 16.6 29.91 0
2005 2005-04-15 56.5 37.9 73.9 29 0.0 9.6 29.89 0
2006 2006-04-15 51.8 37.9 63.0 52 0.0 12.6 29.86 1
2007 2007-04-15 49.8 39.0 59.0 26 0.0 17.7 29.69 3
2008 2008-04-15 61.5 46.0 73.9 15 0.0 18.7 29.75 0
2009 2009-04-15 42.3 33.1 51.1 43 0.0 30.3 29.67 3
2010 2010-04-15 55.6 36.0 73.9 31 0.0 9.1 29.97 0
2011 2011-04-15 53.2 34.0 71.1 28 0.0 6.9 30.04 0
2012 2012-04-15 45.0 37.0 55.9 59 12.2 30.01 6
2013 2013-04-15 56.5 48.0 64.9 42 0.0 24.5 29.61 0
2014 2014-04-15 54.3 33.1 71.1 17 0.0 6.9 29.91 0
2015 2015-04-15 47.8 32.0 63.0 14 0.0 17.9 29.88 0
2016 2016-04-15 50.7 42.1 62.1 42 0.0 21.6 29.62
2017 2017-04-15 55.9 37.0 73.0 36 0.0 8.0 29.91 0
2018 2018-04-15 58.1 37.9 73.0 17 0.0 12.5 29.95 0
2019 2019-04-15 56.3 44.1 66.9 32 0.0 13.9 29.78 0
2020 2020-04-15 48.7 28.9 64.9 33 0.0 10.7 29.99 0
2021 2021-04-15 53.4 44.1 63.0 25 0.0 16.4 29.78 0
2022 2022-04-15 56.3 39.0 69.1 20 0.0 16.1 29.83 0
2023 2023-04-15 52.7 33.1 69.1 34 0.0 7.8 30.02 0
2024 2024-04-15 48.9 37.9 60.1 40 0.0 11.1 29.88 1
2025 2025-04-15 60.6 44.1 73.0 33 0.0 13.2 29.92 2
Average Low 38.3
Average High 66.6

Daily High / Low by Year (04/15)

Barometric Pressure by Year (04/15)

Weather data provided by Meteostat